Time;durP1;ratioP1;P1;durP2;ratioP2;P2;SDS_P1;SDS_P2;PMS_P1;PMS_P2;Temp;Humidity;BMP_temperature;BMP_pressure;BME280_temperature;BME280_humidity;BME280_pressure;Samples;Min_cycle;Max_cycle;Signal;HPM_P1;HPM_P2
2022/07/18 00:02:12;;;;;;;6.80;2.40;;;20.80;75.70;;;;;;5104888;28;20055;-36
2022/07/18 00:04:38;;;;;;;2.38;2.00;;;20.80;76.00;;;;;;5104237;28;20034;-34
2022/07/18 00:07:03;;;;;;;2.92;2.10;;;20.80;76.20;;;;;;5105335;28;20117;-34
2022/07/18 00:09:29;;;;;;;3.55;2.40;;;20.80;76.20;;;;;;5104898;28;20055;-35
2022/07/18 00:11:54;;;;;;;2.80;1.88;;;20.80;76.30;;;;;;5104512;28;20478;-34
2022/07/18 00:14:21;;;;;;;2.65;2.08;;;20.70;76.40;;;;;;5104818;28;20051;-35
2022/07/18 00:16:47;;;;;;;2.63;2.25;;;20.70;76.70;;;;;;5104401;28;20034;-34
2022/07/18 00:19:13;;;;;;;2.80;2.13;;;20.70;76.80;;;;;;5105364;28;20627;-35
2022/07/18 00:21:39;;;;;;;3.45;2.20;;;20.70;76.90;;;;;;5104562;28;20020;-35
2022/07/18 00:24:04;;;;;;;2.88;1.92;;;20.60;77.00;;;;;;5104916;28;20068;-35
2022/07/18 00:26:30;;;;;;;2.50;2.08;;;20.60;77.10;;;;;;5103947;28;20051;-33
2022/07/18 00:28:56;;;;;;;2.88;1.98;;;20.50;77.00;;;;;;5105313;28;20070;-35
2022/07/18 00:31:21;;;;;;;2.83;2.00;;;20.50;77.20;;;;;;5104365;28;20340;-37
2022/07/18 00:33:47;;;;;;;2.83;2.08;;;20.50;77.10;;;;;;5105010;28;20027;-35
2022/07/18 00:36:12;;;;;;;3.30;1.90;;;20.50;77.10;;;;;;5105020;28;20023;-35
2022/07/18 00:38:38;;;;;;;2.78;2.00;;;20.40;77.10;;;;;;5104201;28;20038;-35
2022/07/18 00:41:04;;;;;;;2.85;2.33;;;20.40;77.20;;;;;;5105326;28;20077;-35
2022/07/18 00:43:30;;;;;;;2.30;1.88;;;20.40;77.20;;;;;;5104561;28;20019;-36
2022/07/18 00:45:56;;;;;;;3.05;1.98;;;20.30;77.20;;;;;;5107909;28;20027;-34
2022/07/18 00:48:22;;;;;;;2.22;2.03;;;20.30;77.30;;;;;;5108508;28;20063;-35
2022/07/18 00:50:48;;;;;;;2.67;2.03;;;20.30;77.30;;;;;;5108449;28;20051;-37
2022/07/18 00:53:14;;;;;;;3.33;2.28;;;20.30;77.30;;;;;;5107453;28;20027;-35
2022/07/18 00:55:43;;;;;;;3.78;1.90;;;20.30;77.20;;;;;;5109347;28;20031;-35
2022/07/18 00:58:10;;;;;;;2.38;1.98;;;20.30;76.90;;;;;;5108498;28;20489;-34
2022/07/18 01:03:21;;;;;;;2.13;1.83;;;20.20;76.90;;;;;;5108160;28;20066;-35
2022/07/18 01:05:46;;;;;;;2.45;1.90;;;20.20;76.80;;;;;;5108136;28;20476;-34
2022/07/18 01:08:12;;;;;;;2.90;1.98;;;20.20;76.80;;;;;;5108581;28;20032;-35
2022/07/18 01:10:37;;;;;;;2.63;2.00;;;20.20;77.00;;;;;;5108737;28;20098;-36
2022/07/18 01:13:03;;;;;;;2.70;2.03;;;20.10;77.10;;;;;;5107893;28;20031;-34
2022/07/18 01:15:28;;;;;;;2.47;1.88;;;20.10;77.10;;;;;;5107934;28;20030;-34
2022/07/18 01:17:54;;;;;;;2.53;1.88;;;20.10;77.20;;;;;;5108702;28;20063;-35
2022/07/18 01:20:19;;;;;;;2.78;2.00;;;20.10;77.20;;;;;;5107442;28;20024;-35
2022/07/18 01:22:45;;;;;;;2.97;2.25;;;20.00;77.20;;;;;;5107426;28;20516;-34
2022/07/18 01:25:11;;;;;;;2.83;2.00;;;20.00;77.10;;;;;;5108791;28;20015;-33
2022/07/18 01:27:38;;;;;;;2.30;1.80;;;20.00;77.20;;;;;;5107152;28;20070;-35
2022/07/18 01:30:04;;;;;;;3.38;2.15;;;20.00;77.30;;;;;;5108670;28;20447;-35
2022/07/18 01:32:31;;;;;;;3.20;2.50;;;19.90;77.50;;;;;;5107463;28;20046;-35
2022/07/18 01:34:56;;;;;;;2.45;2.25;;;19.90;77.70;;;;;;5106361;28;20036;-34
2022/07/18 01:37:22;;;;;;;4.53;2.50;;;19.80;77.70;;;;;;5108293;28;20066;-35
2022/07/18 01:39:47;;;;;;;3.00;2.40;;;19.80;77.50;;;;;;5107395;28;20016;-34
2022/07/18 01:42:14;;;;;;;4.47;2.58;;;19.80;77.60;;;;;;5107011;28;20042;-37
2022/07/18 01:44:40;;;;;;;3.15;2.15;;;19.80;77.60;;;;;;5107740;28;20024;-34
2022/07/18 01:47:08;;;;;;;3.33;2.20;;;19.80;77.60;;;;;;5108107;28;20364;-34
2022/07/18 01:49:34;;;;;;;2.65;1.98;;;19.80;77.80;;;;;;5106226;28;20012;-34
2022/07/18 01:52:00;;;;;;;3.25;2.00;;;19.70;77.80;;;;;;5108195;28;20028;-34
2022/07/18 01:54:31;;;;;;;3.60;2.30;;;19.70;77.90;;;;;;5105788;28;20023;-34
2022/07/18 01:56:58;;;;;;;3.03;2.30;;;19.70;78.00;;;;;;5095811;28;20043;-34
2022/07/18 01:59:24;;;;;;;3.22;2.03;;;19.60;78.00;;;;;;5097180;28;20019;-34
2022/07/18 02:01:50;;;;;;;2.80;2.13;;;19.60;78.10;;;;;;5107711;28;20028;-35
2022/07/18 02:04:15;;;;;;;2.72;2.05;;;19.60;78.10;;;;;;5106888;28;20027;-33
2022/07/18 02:06:41;;;;;;;4.40;2.30;;;19.50;78.20;;;;;;5107440;28;20027;-35
2022/07/18 02:09:09;;;;;;;2.88;2.03;;;19.50;78.40;;;;;;5106749;28;20022;-35
2022/07/18 02:11:35;;;;;;;3.97;2.20;;;19.50;78.50;;;;;;5096174;28;20478;-35
2022/07/18 02:14:01;;;;;;;3.90;2.08;;;19.50;78.60;;;;;;5107223;28;20027;-35
2022/07/18 02:16:27;;;;;;;3.25;2.10;;;19.50;78.70;;;;;;5105488;28;20088;-34
2022/07/18 02:18:53;;;;;;;3.60;2.20;;;19.50;78.80;;;;;;5107420;28;20532;-35
2022/07/18 02:21:18;;;;;;;2.90;2.53;;;19.50;79.00;;;;;;5106834;28;20030;-35
2022/07/18 02:23:44;;;;;;;4.35;2.58;;;19.50;79.10;;;;;;5106286;28;20596;-35
2022/07/18 02:26:10;;;;;;;3.15;2.17;;;19.40;79.20;;;;;;5106928;28;20024;-35
2022/07/18 02:28:36;;;;;;;3.72;2.00;;;19.40;79.30;;;;;;5106775;28;20051;-34
2022/07/18 02:31:03;;;;;;;3.50;2.30;;;19.40;79.40;;;;;;5106191;28;20090;-35
2022/07/18 02:33:29;;;;;;;3.63;2.50;;;19.30;79.50;;;;;;5105823;28;20028;-34
2022/07/18 02:35:55;;;;;;;4.55;2.50;;;19.30;79.60;;;;;;5107211;28;20028;-34
2022/07/18 02:38:20;;;;;;;3.85;2.50;;;19.30;79.70;;;;;;5105342;28;20039;-35
2022/07/18 02:40:46;;;;;;;2.85;2.38;;;19.30;79.80;;;;;;5105852;28;20020;-35
2022/07/18 02:43:11;;;;;;;3.00;2.33;;;19.20;79.90;;;;;;5106873;28;20118;-34
2022/07/18 02:45:37;;;;;;;2.67;2.28;;;19.20;80.10;;;;;;5105036;28;20020;-35
2022/07/18 02:48:03;;;;;;;2.42;2.20;;;19.20;80.20;;;;;;5106426;28;20028;-36
2022/07/18 02:50:29;;;;;;;3.05;2.35;;;19.10;80.40;;;;;;5106456;28;20052;-35
2022/07/18 02:52:56;;;;;;;4.65;2.58;;;19.10;80.50;;;;;;5105742;28;20097;-35
2022/07/18 02:55:22;;;;;;;5.40;2.97;;;19.10;80.70;;;;;;5106293;28;21289;-35
2022/07/18 02:57:48;;;;;;;4.40;3.00;;;19.10;80.80;;;;;;5106268;28;20544;-35
2022/07/18 03:00:14;;;;;;;3.90;2.80;;;19.10;80.90;;;;;;5105750;28;20024;-36
2022/07/18 03:02:41;;;;;;;3.33;2.30;;;19.00;80.90;;;;;;5106121;28;20034;-34
2022/07/18 03:05:07;;;;;;;4.47;2.55;;;19.00;80.90;;;;;;5106750;28;20031;-34
2022/07/18 03:07:33;;;;;;;3.95;2.40;;;18.90;80.90;;;;;;5103990;28;20032;-34
2022/07/18 03:09:58;;;;;;;3.97;2.63;;;18.90;80.80;;;;;;5106265;28;20390;-36
2022/07/18 03:12:24;;;;;;;4.50;2.70;;;18.90;80.50;;;;;;5104858;28;20069;-36
2022/07/18 03:14:50;;;;;;;3.35;2.50;;;18.90;80.40;;;;;;5105989;28;20068;-35
2022/07/18 03:17:16;;;;;;;3.03;2.33;;;18.90;80.50;;;;;;5105137;28;20063;-35
2022/07/18 03:19:41;;;;;;;4.40;2.83;;;18.90;80.50;;;;;;5105953;28;20026;-35
2022/07/18 03:22:07;;;;;;;3.75;2.20;;;18.90;80.50;;;;;;5106069;28;20027;-36
2022/07/18 03:24:33;;;;;;;3.70;2.47;;;18.90;80.60;;;;;;5105363;28;20039;-35
2022/07/18 03:26:59;;;;;;;2.83;2.63;;;18.80;80.60;;;;;;5105131;28;20030;-35
2022/07/18 03:29:24;;;;;;;2.97;2.67;;;18.90;80.70;;;;;;5104995;28;20031;-34
2022/07/18 03:31:50;;;;;;;4.25;2.67;;;18.80;80.70;;;;;;5105946;28;20031;-34
2022/07/18 03:34:15;;;;;;;3.60;2.55;;;18.80;80.70;;;;;;5104554;28;20019;-35
2022/07/18 03:36:41;;;;;;;3.17;2.55;;;18.80;80.70;;;;;;5105459;28;20114;-35
2022/07/18 03:39:08;;;;;;;4.00;2.60;;;18.80;80.70;;;;;;5105817;28;20462;-35
2022/07/18 03:41:33;;;;;;;3.15;2.80;;;18.80;80.60;;;;;;5103864;28;20506;-34
2022/07/18 03:43:59;;;;;;;5.88;2.67;;;18.80;80.70;;;;;;5105582;28;20133;-34
2022/07/18 03:46:25;;;;;;;2.55;2.22;;;18.80;80.70;;;;;;5105838;28;20027;-35
2022/07/18 03:48:50;;;;;;;5.05;2.60;;;18.80;80.60;;;;;;5104517;28;20092;-34
2022/07/18 03:51:16;;;;;;;4.15;2.95;;;18.80;80.80;;;;;;5105159;28;20030;-34
2022/07/18 03:53:42;;;;;;;3.22;2.40;;;18.70;80.70;;;;;;5105061;28;20108;-34
2022/07/18 03:56:08;;;;;;;3.10;2.38;;;18.80;80.70;;;;;;5104626;28;20023;-34
2022/07/18 03:58:34;;;;;;;3.05;2.15;;;18.80;80.60;;;;;;5104628;28;20043;-34
2022/07/18 04:01:00;;;;;;;2.53;2.10;;;18.80;80.50;;;;;;5105629;28;20576;-35
2022/07/18 04:03:25;;;;;;;3.58;2.25;;;18.80;80.30;;;;;;5104024;28;20154;-35
2022/07/18 04:05:51;;;;;;;3.40;2.47;;;18.80;80.20;;;;;;5105294;28;20027;-34
2022/07/18 04:08:17;;;;;;;2.42;1.90;;;18.80;80.00;;;;;;5105206;28;20050;-35
2022/07/18 04:10:43;;;;;;;2.00;1.73;;;18.80;79.90;;;;;;5104324;28;20028;-34
2022/07/18 04:13:09;;;;;;;4.18;2.03;;;18.90;79.80;;;;;;5105351;28;20471;-35
2022/07/18 04:15:36;;;;;;;2.28;2.08;;;18.90;79.70;;;;;;5104308;28;20089;-35
2022/07/18 04:18:03;;;;;;;2.38;2.17;;;18.90;79.60;;;;;;5104801;28;20479;-35
2022/07/18 04:20:28;;;;;;;3.80;2.25;;;18.90;79.50;;;;;;5111451;28;20032;-34
2022/07/18 04:22:59;;;;;;;2.95;2.08;;;18.90;79.40;;;;;;5111116;28;20566;-34
2022/07/18 04:25:29;;;;;;;5.72;2.42;;;18.90;79.50;;;;;;5111335;28;20027;-35
2022/07/18 04:27:55;;;;;;;3.60;2.20;;;18.90;79.50;;;;;;5112250;28;20122;-34
2022/07/18 04:30:23;;;;;;;2.05;1.85;;;18.90;79.60;;;;;;5110570;28;20023;-35
2022/07/18 04:32:49;;;;;;;4.07;2.33;;;18.90;79.70;;;;;;5111879;28;20031;-34
2022/07/18 04:35:14;;;;;;;4.15;2.30;;;18.90;79.80;;;;;;5112172;28;20077;-34
2022/07/18 04:37:41;;;;;;;3.35;2.10;;;18.90;79.90;;;;;;5111085;28;20039;-34
2022/07/18 04:40:09;;;;;;;2.97;2.15;;;18.90;80.00;;;;;;5111466;28;20031;-34
2022/07/18 04:42:35;;;;;;;5.93;2.05;;;18.90;80.00;;;;;;5111073;28;20128;-35
2022/07/18 04:45:01;;;;;;;3.15;2.00;;;18.90;80.00;;;;;;5110849;28;20110;-34
2022/07/18 04:47:28;;;;;;;3.00;2.40;;;18.90;80.10;;;;;;5111443;28;20035;-35
2022/07/18 04:49:54;;;;;;;3.25;2.20;;;18.90;80.10;;;;;;5111752;28;20378;-35
2022/07/18 04:52:20;;;;;;;3.70;2.03;;;18.90;80.20;;;;;;5111158;28;20315;-34
2022/07/18 04:54:46;;;;;;;3.17;1.90;;;18.90;80.30;;;;;;5111859;28;20031;-33
2022/07/18 04:57:14;;;;;;;3.22;2.05;;;18.90;80.20;;;;;;5111741;28;20220;-34
2022/07/18 04:59:40;;;;;;;2.78;2.00;;;18.90;80.30;;;;;;5111009;28;20015;-34
2022/07/18 05:02:06;;;;;;;3.78;2.35;;;19.00;81.00;;;;;;5112160;28;20096;-34
2022/07/18 05:04:31;;;;;;;4.15;2.60;;;19.00;80.40;;;;;;5110867;28;21049;-35
2022/07/18 05:06:57;;;;;;;5.20;2.40;;;19.00;80.50;;;;;;5110559;28;20490;-35
2022/07/18 05:09:22;;;;;;;3.45;2.35;;;19.00;80.50;;;;;;5111474;28;20061;-36
2022/07/18 05:11:48;;;;;;;3.40;2.42;;;19.10;80.60;;;;;;5111335;28;20475;-35
2022/07/18 05:14:14;;;;;;;4.00;2.20;;;19.00;80.60;;;;;;5111206;27;20027;-34
2022/07/18 05:16:40;;;;;;;2.85;2.30;;;19.10;80.70;;;;;;5111409;28;20061;-35
2022/07/18 05:19:05;;;;;;;4.25;2.40;;;19.10;80.70;;;;;;5111017;28;20019;-34
2022/07/18 05:21:31;;;;;;;3.65;2.47;;;19.20;80.80;;;;;;5110536;28;20016;-33
2022/07/18 05:23:56;;;;;;;2.90;2.33;;;19.20;80.80;;;;;;5111125;28;20057;-35
2022/07/18 05:26:22;;;;;;;3.08;2.28;;;19.20;80.80;;;;;;5110043;28;20467;-34
2022/07/18 05:28:48;;;;;;;2.65;2.35;;;19.30;80.80;;;;;;5111105;28;20024;-35
2022/07/18 05:31:13;;;;;;;4.75;2.30;;;19.30;80.80;;;;;;5107429;28;20030;-35
2022/07/18 05:33:39;;;;;;;5.68;2.30;;;19.30;80.80;;;;;;5106884;28;20028;-34
2022/07/18 05:36:05;;;;;;;3.65;2.25;;;19.40;80.80;;;;;;5107924;28;20052;-34
2022/07/18 05:38:30;;;;;;;7.25;2.33;;;19.40;80.80;;;;;;5106725;28;20483;-34
2022/07/18 05:40:57;;;;;;;2.63;2.30;;;19.50;80.80;;;;;;5107324;28;20081;-34
2022/07/18 05:43:22;;;;;;;3.30;2.10;;;19.60;80.80;;;;;;5107377;28;20032;-35
2022/07/18 05:45:48;;;;;;;4.78;2.38;;;19.60;80.80;;;;;;5107502;28;20019;-35
2022/07/18 05:48:13;;;;;;;3.20;2.45;;;19.60;80.80;;;;;;5107358;28;20035;-35
2022/07/18 05:50:39;;;;;;;3.50;2.58;;;19.60;80.80;;;;;;5107357;28;20046;-34
2022/07/18 05:53:05;;;;;;;3.17;2.40;;;19.60;80.80;;;;;;5107670;28;20026;-35
2022/07/18 05:55:30;;;;;;;3.25;2.42;;;19.60;80.90;;;;;;5105981;28;20020;-35
2022/07/18 05:57:56;;;;;;;3.75;2.00;;;19.60;81.00;;;;;;5107841;28;20502;-35
2022/07/18 06:00:22;;;;;;;2.72;2.28;;;19.60;81.20;;;;;;5107381;28;20023;-36
2022/07/18 06:02:48;;;;;;;2.53;2.10;;;19.60;81.20;;;;;;5106622;28;20024;-36
2022/07/18 06:05:15;;;;;;;2.80;2.00;;;19.60;81.30;;;;;;5107520;28;20475;-35
2022/07/18 06:07:41;;;;;;;4.82;2.60;;;19.60;81.30;;;;;;5106707;28;20066;-35
2022/07/18 06:10:07;;;;;;;4.07;2.50;;;19.60;81.30;;;;;;5107620;28;20585;-37
2022/07/18 06:12:33;;;;;;;4.70;2.70;;;19.70;81.40;;;;;;5106972;28;20030;-35
2022/07/18 06:14:59;;;;;;;3.83;2.38;;;19.80;81.40;;;;;;5107325;28;20015;-35
2022/07/18 06:17:25;;;;;;;4.43;2.40;;;19.80;81.40;;;;;;5106240;28;20114;-36
2022/07/18 06:19:51;;;;;;;3.40;2.22;;;19.80;81.40;;;;;;5107216;28;20130;-34
2022/07/18 06:22:17;;;;;;;3.20;2.03;;;19.90;81.40;;;;;;5106192;28;20118;-34
2022/07/18 06:24:42;;;;;;;3.55;2.17;;;19.90;81.30;;;;;;5106589;28;20051;-35
2022/07/18 06:27:08;;;;;;;4.70;2.05;;;20.00;81.40;;;;;;5106815;28;20028;-35
2022/07/18 06:29:33;;;;;;;2.30;2.10;;;20.00;81.40;;;;;;5105329;28;20011;-35
2022/07/18 06:31:59;;;;;;;2.90;2.15;;;20.00;81.40;;;;;;5106816;28;20063;-34
2022/07/18 06:34:24;;;;;;;2.45;2.05;;;20.10;82.20;;;;;;5105931;28;20027;-35
2022/07/18 06:36:50;;;;;;;2.78;2.00;;;20.10;81.50;;;;;;5106283;28;20044;-35
2022/07/18 06:39:18;;;;;;;2.25;1.90;;;20.20;81.60;;;;;;5106232;28;20080;-34
2022/07/18 06:41:44;;;;;;;4.13;2.33;;;20.20;81.50;;;;;;5105165;28;20024;-36
2022/07/18 06:44:10;;;;;;;4.57;1.95;;;20.30;81.50;;;;;;5105793;28;20160;-37
2022/07/18 06:46:36;;;;;;;2.85;2.10;;;20.30;81.40;;;;;;5105975;28;20737;-34
2022/07/18 06:49:02;;;;;;;3.67;1.75;;;20.40;81.40;;;;;;5106474;28;20026;-34
2022/07/18 06:51:29;;;;;;;2.05;1.67;;;20.40;81.30;;;;;;5105493;28;20384;-36
2022/07/18 06:53:54;;;;;;;3.92;1.73;;;20.50;81.30;;;;;;5106323;28;20398;-35
2022/07/18 06:56:20;;;;;;;2.45;1.65;;;20.50;81.20;;;;;;5105510;28;20024;-34
2022/07/18 06:58:48;;;;;;;2.00;1.60;;;20.60;81.10;;;;;;5105240;28;20031;-35
2022/07/18 07:01:16;;;;;;;4.50;1.50;;;20.60;81.10;;;;;;5095485;28;20030;-35
2022/07/18 07:03:41;;;;;;;3.28;1.52;;;20.70;81.10;;;;;;5106312;28;20212;-35
2022/07/18 07:06:07;;;;;;;2.83;1.48;;;20.70;81.00;;;;;;5105801;28;20518;-36
2022/07/18 07:08:33;;;;;;;3.10;1.60;;;20.80;80.90;;;;;;5105277;28;20433;-35
2022/07/18 07:10:59;;;;;;;1.65;1.50;;;20.90;80.90;;;;;;5104937;28;20016;-34
2022/07/18 07:13:25;;;;;;;4.15;1.60;;;21.00;80.80;;;;;;5105417;28;20369;-35
2022/07/18 07:15:50;;;;;;;3.00;1.60;;;21.00;80.70;;;;;;5106085;28;20043;-36
2022/07/18 07:18:16;;;;;;;4.30;1.73;;;21.10;80.70;;;;;;5106016;28;20031;-34
2022/07/18 07:20:42;;;;;;;2.85;1.40;;;21.10;80.60;;;;;;5105016;28;20042;-34
2022/07/18 07:23:08;;;;;;;1.75;1.38;;;21.20;80.60;;;;;;5106122;28;20074;-33
2022/07/18 07:25:35;;;;;;;2.40;1.70;;;21.30;80.70;;;;;;5104776;28;20030;-34
2022/07/18 07:28:01;;;;;;;3.63;1.60;;;21.30;80.70;;;;;;5106273;28;20028;-35
2022/07/18 07:30:27;;;;;;;3.78;1.40;;;21.30;80.60;;;;;;5104814;28;20035;-36
2022/07/18 07:32:52;;;;;;;2.95;1.73;;;21.40;80.70;;;;;;5104629;28;20027;-34
2022/07/18 07:35:19;;;;;;;3.55;1.63;;;21.40;80.60;;;;;;5105596;28;20481;-35
2022/07/18 07:37:51;;;;;;;3.17;1.50;;;21.50;80.60;;;;;;5104910;28;20120;-34
2022/07/18 07:40:18;;;;;;;2.45;1.30;;;21.50;80.60;;;;;;5104493;28;20488;-35
2022/07/18 07:42:43;;;;;;;2.13;1.30;;;21.60;80.60;;;;;;5105318;28;20377;-36
2022/07/18 07:45:10;;;;;;;6.93;1.60;;;21.60;80.60;;;;;;5105198;28;20391;-35
2022/07/18 07:47:37;;;;;;;2.03;1.50;;;21.60;80.50;;;;;;5104130;28;20032;-34
2022/07/18 07:50:05;;;;;;;2.20;1.30;;;21.70;80.40;;;;;;5105484;28;20077;-34
2022/07/18 07:52:30;;;;;;;3.03;1.30;;;21.80;80.20;;;;;;5101029;28;20031;-33
2022/07/18 07:54:56;;;;;;;1.38;1.15;;;21.90;80.10;;;;;;5104521;28;20020;-34
2022/07/18 07:57:22;;;;;;;1.85;1.17;;;21.90;79.90;;;;;;5105132;28;20610;-36
2022/07/18 07:59:47;;;;;;;1.95;0.82;;;22.00;80.50;;;;;;5105460;28;20023;-34
2022/07/18 08:02:14;;;;;;;1.63;1.00;;;22.10;79.80;;;;;;5104508;28;20032;-35
2022/07/18 08:04:40;;;;;;;1.45;0.90;;;22.20;79.90;;;;;;5084855;28;20256;-35
2022/07/18 08:07:06;;;;;;;2.95;0.90;;;22.20;79.70;;;;;;5099587;28;20024;-34
2022/07/18 08:09:32;;;;;;;1.98;1.30;;;22.30;79.50;;;;;;5104118;28;20016;-35
2022/07/18 08:11:57;;;;;;;1.55;0.90;;;22.30;79.10;;;;;;5105866;28;20031;-35
2022/07/18 08:14:23;;;;;;;1.52;0.90;;;22.40;78.90;;;;;;5105514;28;20016;-36
2022/07/18 08:16:48;;;;;;;1.42;0.90;;;22.40;78.70;;;;;;5103934;28;20066;-34
2022/07/18 08:19:14;;;;;;;1.35;0.95;;;22.50;78.50;;;;;;5105478;28;20035;-35
2022/07/18 08:21:39;;;;;;;2.97;1.17;;;22.60;78.40;;;;;;5104511;28;20072;-35
2022/07/18 08:24:05;;;;;;;0.95;0.85;;;22.60;78.40;;;;;;5104597;28;20498;-34
2022/07/18 08:26:31;;;;;;;2.47;1.00;;;22.60;78.30;;;;;;5105059;28;20538;-35
2022/07/18 08:28:56;;;;;;;2.78;1.02;;;22.70;78.00;;;;;;5104711;28;20045;-35
2022/07/18 08:31:22;;;;;;;1.88;1.10;;;22.80;77.60;;;;;;5105202;28;20420;-35
2022/07/18 08:33:49;;;;;;;1.33;0.93;;;23.00;77.50;;;;;;5104261;28;20055;-35
2022/07/18 08:36:14;;;;;;;1.60;1.20;;;23.00;77.40;;;;;;5104062;28;20493;-35
2022/07/18 08:38:40;;;;;;;2.42;1.33;;;23.10;77.30;;;;;;5104769;28;20228;-36
2022/07/18 08:41:06;;;;;;;1.67;1.20;;;23.20;77.10;;;;;;5105049;28;20051;-35
2022/07/18 08:43:32;;;;;;;1.70;1.20;;;23.40;76.80;;;;;;5103442;28;20035;-34
2022/07/18 08:46:03;;;;;;;1.55;1.08;;;23.40;76.30;;;;;;5105111;28;20026;-35
2022/07/18 08:48:29;;;;;;;1.20;1.10;;;23.50;76.20;;;;;;5104120;28;20051;-35
2022/07/18 08:50:55;;;;;;;1.27;1.10;;;23.60;76.00;;;;;;5104215;28;20565;-34
2022/07/18 08:53:21;;;;;;;2.15;1.10;;;23.80;75.80;;;;;;5104687;28;20024;-34
2022/07/18 08:55:48;;;;;;;1.10;1.00;;;23.90;75.60;;;;;;5105179;28;20046;-34
2022/07/18 08:58:14;;;;;;;2.17;1.25;;;24.00;75.30;;;;;;5104025;28;20026;-34
2022/07/18 09:00:40;;;;;;;2.33;1.65;;;24.10;75.10;;;;;;5104577;28;20024;-34
2022/07/18 09:03:06;;;;;;;2.75;0.88;;;24.20;75.00;;;;;;5105244;28;20445;-34
2022/07/18 09:05:33;;;;;;;1.30;1.20;;;24.20;74.80;;;;;;5104748;28;20465;-34
2022/07/18 09:08:15;;;;;;;3.22;1.02;;;24.20;74.70;;;;;;5108966;28;20070;-34
2022/07/18 09:10:52;;;;;;;3.90;1.27;;;24.30;74.70;;;;;;5099018;28;20074;-34
2022/07/18 09:13:23;;;;;;;1.70;1.10;;;24.30;74.30;;;;;;5107692;28;20459;-34
2022/07/18 09:16:17;;;;;;;1.77;1.20;;;24.30;74.30;;;;;;5109007;28;20020;-35
2022/07/18 09:18:46;;;;;;;2.50;1.27;;;24.30;74.40;;;;;;5108077;28;20362;-34
2022/07/18 09:21:15;;;;;;;3.35;1.25;;;24.30;74.40;;;;;;5108719;28;20019;-34
2022/07/18 09:23:49;;;;;;;2.33;1.63;;;24.30;74.20;;;;;;5108405;28;20052;-34
2022/07/18 09:26:42;;;;;;;1.80;0.90;;;24.30;74.00;;;;;;5108415;28;20054;-34
2022/07/18 09:29:17;;;;;;;1.80;1.02;;;24.40;73.70;;;;;;5108798;28;20395;-35
2022/07/18 09:31:50;;;;;;;2.63;1.13;;;24.40;73.60;;;;;;5108513;28;20144;-35
2022/07/18 09:34:32;;;;;;;2.05;1.33;;;24.50;73.60;;;;;;5107469;28;20035;-35
2022/07/18 09:36:58;;;;;;;2.10;1.05;;;24.60;73.00;;;;;;5108293;28;20028;-35
2022/07/18 09:39:24;;;;;;;1.42;1.30;;;24.70;72.20;;;;;;5107642;28;20027;-37
2022/07/18 09:41:49;;;;;;;2.13;1.08;;;24.80;71.90;;;;;;5108320;28;20024;-36
2022/07/18 09:44:18;;;;;;;1.77;1.17;;;25.00;71.50;;;;;;5108583;28;20035;-35
2022/07/18 09:47:04;;;;;;;1.52;1.08;;;25.20;71.20;;;;;;5107075;28;20943;-33
2022/07/18 09:49:31;;;;;;;0.80;0.80;;;25.30;70.80;;;;;;5107667;28;20051;-37
2022/07/18 09:52:08;;;;;;;2.35;1.17;;;25.40;70.80;;;;;;5096997;28;20107;-35
2022/07/18 09:54:39;;;;;;;2.22;0.90;;;25.60;70.20;;;;;;5107435;28;20136;-33
2022/07/18 09:57:04;;;;;;;1.60;1.02;;;25.80;69.60;;;;;;5108280;28;20032;-35
2022/07/18 09:59:30;;;;;;;1.13;0.93;;;25.90;70.10;;;;;;5106905;28;20039;-34
2022/07/18 10:01:56;;;;;;;1.98;1.20;;;26.10;69.30;;;;;;5107829;28;20012;-36
2022/07/18 10:04:22;;;;;;;1.40;1.10;;;26.20;69.00;;;;;;5107660;28;20032;-36
2022/07/18 10:06:47;;;;;;;1.20;1.08;;;26.30;69.10;;;;;;5106349;28;20015;-35
2022/07/18 10:09:13;;;;;;;3.00;0.90;;;26.30;69.10;;;;;;5107052;28;20145;-35
2022/07/18 10:11:40;;;;;;;1.00;0.70;;;26.20;69.10;;;;;;5106133;28;20031;-37
2022/07/18 10:14:06;;;;;;;1.27;0.90;;;26.20;69.30;;;;;;5107660;28;20103;-35
2022/07/18 10:16:31;;;;;;;1.10;1.00;;;26.10;69.50;;;;;;5105714;28;20094;-35
2022/07/18 10:18:59;;;;;;;1.95;0.90;;;26.10;69.70;;;;;;5107218;28;20410;-35
2022/07/18 10:21:25;;;;;;;3.15;1.00;;;26.00;69.80;;;;;;5105873;28;20107;-34
2022/07/18 10:23:52;;;;;;;1.48;0.95;;;26.00;69.90;;;;;;5106520;28;20389;-35
2022/07/18 10:26:23;;;;;;;0.90;0.90;;;25.90;69.70;;;;;;5106829;28;20050;-35
2022/07/18 10:28:54;;;;;;;1.10;0.98;;;25.90;69.30;;;;;;5106463;28;20447;-35
2022/07/18 10:31:22;;;;;;;1.63;0.93;;;26.00;69.20;;;;;;5106705;28;20485;-35
2022/07/18 10:33:48;;;;;;;1.83;0.98;;;26.00;69.20;;;;;;5107189;28;20077;-36
2022/07/18 10:36:14;;;;;;;1.83;0.70;;;26.00;69.30;;;;;;5105628;28;20123;-35
2022/07/18 10:39:02;;;;;;;0.95;0.60;;;26.00;69.50;;;;;;5106579;28;20520;-35
2022/07/18 10:41:28;;;;;;;1.10;0.82;;;25.90;69.50;;;;;;5106074;28;20073;-34
2022/07/18 10:43:54;;;;;;;1.52;0.70;;;26.00;69.60;;;;;;5105923;28;20382;-34
2022/07/18 10:46:19;;;;;;;1.27;0.98;;;26.00;69.50;;;;;;5106286;28;20031;-34
2022/07/18 10:48:50;;;;;;;1.10;0.82;;;26.10;69.00;;;;;;5105953;28;20039;-39
2022/07/18 10:51:17;;;;;;;1.30;0.98;;;26.20;68.80;;;;;;5105445;28;20031;-35
2022/07/18 10:54:00;;;;;;;1.73;0.80;;;26.30;68.30;;;;;;5106302;28;20015;-35
2022/07/18 10:56:28;;;;;;;1.50;1.00;;;26.30;68.30;;;;;;5106160;28;20078;-35
2022/07/18 10:58:58;;;;;;;1.10;1.00;;;26.40;68.10;;;;;;5105790;28;20114;-35
2022/07/18 11:01:25;;;;;;;2.03;0.77;;;26.40;68.00;;;;;;5105949;28;20035;-34
2022/07/18 11:04:32;;;;;;;2.25;0.90;;;26.40;68.00;;;;;;5106007;28;20070;-35
2022/07/18 11:07:13;;;;;;;2.63;1.10;;;26.50;67.60;;;;;;5105959;28;20429;-35
2022/07/18 11:09:45;;;;;;;1.45;0.98;;;26.70;67.10;;;;;;5095810;28;20445;-36
2022/07/18 11:12:30;;;;;;;1.53;1.20;;;26.80;67.00;;;;;;5105604;28;20360;-34
2022/07/18 11:15:02;;;;;;;2.03;1.10;;;26.80;66.90;;;;;;5096740;28;20360;-35
2022/07/18 11:18:03;;;;;;;1.88;0.90;;;26.80;66.80;;;;;;5105162;28;20529;-33
2022/07/18 11:20:35;;;;;;;0.98;0.82;;;27.00;66.50;;;;;;5105683;28;20373;-36
2022/07/18 11:23:17;;;;;;;2.20;1.20;;;27.10;66.00;;;;;;5105519;28;20581;-36
2022/07/18 11:25:42;;;;;;;2.13;1.10;;;27.20;66.80;;;;;;5104852;28;20023;-37
2022/07/18 11:28:09;;;;;;;1.63;1.15;;;27.20;65.90;;;;;;5105530;28;20028;-34
2022/07/18 11:30:36;;;;;;;1.85;1.10;;;27.30;65.30;;;;;;5106048;28;20023;-36
2022/07/18 11:33:02;;;;;;;1.33;1.02;;;27.40;65.20;;;;;;5105042;28;20027;-36
2022/07/18 11:35:28;;;;;;;1.92;1.23;;;27.50;65.30;;;;;;5105486;28;20026;-36
2022/07/18 11:37:55;;;;;;;1.65;1.00;;;27.50;65.20;;;;;;5105798;28;20043;-35
2022/07/18 11:40:21;;;;;;;1.20;1.10;;;27.50;65.10;;;;;;5105493;28;20092;-35
2022/07/18 11:42:47;;;;;;;2.60;1.05;;;27.60;65.00;;;;;;5105577;28;20051;-35
2022/07/18 11:45:15;;;;;;;1.40;1.10;;;27.80;65.10;;;;;;5105896;28;20375;-36
2022/07/18 11:47:50;;;;;;;2.38;0.90;;;27.80;64.50;;;;;;5104686;28;20433;-36
2022/07/18 11:50:17;;;;;;;3.03;1.05;;;27.90;63.90;;;;;;5104913;28;20016;-37
2022/07/18 11:52:45;;;;;;;2.30;1.27;;;28.10;63.40;;;;;;5106051;28;20028;-34
2022/07/18 11:55:14;;;;;;;1.00;0.90;;;28.20;63.30;;;;;;5104780;28;20034;-35
2022/07/18 11:57:39;;;;;;;1.20;1.10;;;28.20;63.20;;;;;;5105242;28;20035;-35
2022/07/18 12:00:17;;;;;;;1.10;1.00;;;28.30;62.60;;;;;;5104993;28;20027;-36
2022/07/18 12:03:09;;;;;;;1.67;1.10;;;28.30;62.90;;;;;;5085071;28;20217;-36
2022/07/18 12:05:38;;;;;;;1.92;1.00;;;28.30;62.90;;;;;;5103401;28;20047;-35
2022/07/18 12:08:36;;;;;;;1.27;1.08;;;28.40;62.60;;;;;;5104646;28;20031;-35
2022/07/18 12:11:12;;;;;;;1.40;1.20;;;28.40;62.00;;;;;;5104458;28;20020;-36
2022/07/18 12:13:56;;;;;;;2.45;1.45;;;28.50;61.30;;;;;;5104608;28;20219;-35
2022/07/18 12:16:33;;;;;;;2.13;1.50;;;28.70;60.50;;;;;;5101640;28;20036;-35
2022/07/18 12:19:13;;;;;;;2.00;1.20;;;28.80;60.40;;;;;;5104536;28;20040;-35
2022/07/18 12:21:45;;;;;;;1.77;1.05;;;28.90;60.60;;;;;;5101483;28;20020;-36
2022/07/18 12:24:18;;;;;;;1.42;1.33;;;28.90;61.10;;;;;;5104779;28;20498;-35
2022/07/18 12:26:44;;;;;;;2.13;1.33;;;28.90;60.70;;;;;;5101967;28;20028;-36
2022/07/18 12:29:10;;;;;;;2.45;1.13;;;28.90;60.80;;;;;;5104173;28;20035;-36
2022/07/18 12:31:40;;;;;;;1.95;1.17;;;28.90;60.70;;;;;;5104609;28;20023;-39
2022/07/18 12:34:19;;;;;;;1.85;1.20;;;28.80;60.80;;;;;;5105326;28;20103;-34
2022/07/18 12:36:55;;;;;;;2.55;1.42;;;28.80;60.90;;;;;;5103550;28;20498;-36
2022/07/18 12:39:30;;;;;;;3.25;1.40;;;28.80;60.70;;;;;;5105508;28;20043;-34
2022/07/18 12:41:57;;;;;;;2.45;1.23;;;28.80;61.00;;;;;;5109104;28;20012;-36
2022/07/18 12:44:24;;;;;;;1.30;1.20;;;28.90;61.00;;;;;;5108491;28;20454;-36
2022/07/18 12:46:49;;;;;;;2.30;1.27;;;29.00;60.90;;;;;;5108959;28;20020;-34
2022/07/18 12:49:15;;;;;;;1.83;1.25;;;29.10;60.50;;;;;;5108718;28;20020;-35
2022/07/18 12:51:40;;;;;;;1.40;1.10;;;29.20;60.50;;;;;;5108517;28;20519;-34
2022/07/18 12:54:06;;;;;;;2.40;1.40;;;29.30;60.40;;;;;;5109154;28;20514;-35